»·PEaware :: N333ZS KSNA-KSNA

N333ZS :: KSNA-KSNA

FLIGHT INFORMATION

Flight Status: Arrived
Operator: Privately registered:
United States
More flights under this callsign
Pilot: Judd H. (29974)
Aircraft: CESSNA 182 SKYLANE
(C182)
More flights by this aircraft type
Origin: KSNA John Wayne-Orange Co
United States
Destination: KSNA John Wayne-Orange Co
United States
More flights between these airports :: More routes between these airports
Route: SLI
File this flight plan on PilotEdge
Remarks:
Altitude:
(Current/Filed)
3,000ft
Speed:
(Current/Filed)
120kts
Departed: 20-Sep-20 01:17 PM
Arrived: 20-Sep-20 01:38 PM
Distance/Time
Traveled:
0nm/0:21
Distance/Time
To Go:
Arrived

Flight Plot

Page will automatically refresh every two minutes.


Map Options




Map Legend


Flown Route
Filed Route
Departure Airport
Arrival Airport
Navaid (VOR, NDB)
Fix

Horizontal Profiles

Position Reports

Time Latitude Longitude Heading Altitude Ground
Speed
20-Sep-20 12:43 33.671139 -117.873912 209 59ft 0kts
20-Sep-20 12:44 33.671139 -117.873912 209 59ft 0kts
20-Sep-20 12:45 33.671139 -117.873912 209 59ft 0kts
20-Sep-20 12:46 33.671139 -117.873912 209 59ft 0kts
20-Sep-20 12:48 33.671139 -117.873912 209 59ft 0kts
20-Sep-20 12:49 33.671139 -117.873912 209 59ft 0kts
20-Sep-20 12:50 33.671139 -117.873912 209 59ft 0kts
20-Sep-20 12:51 33.671138 -117.873913 209 59ft 0kts
20-Sep-20 12:52 33.671137 -117.873914 209 59ft 0kts
20-Sep-20 12:53 33.671136 -117.873914 209 59ft 0kts
20-Sep-20 12:54 33.671135 -117.873915 209 59ft 0kts
20-Sep-20 12:55 33.671134 -117.873915 209 59ft 0kts
20-Sep-20 12:56 33.671133 -117.873916 209 59ft 0kts
20-Sep-20 12:57 33.671132 -117.873917 209 59ft 0kts
20-Sep-20 12:58 33.671132 -117.873917 209 59ft 0kts
20-Sep-20 12:59 33.671131 -117.873918 209 59ft 0kts
20-Sep-20 13:00 33.671130 -117.873918 209 59ft 0kts
20-Sep-20 13:01 33.671129 -117.873919 209 59ft 0kts
20-Sep-20 13:02 33.671128 -117.873919 209 59ft 0kts
20-Sep-20 13:02 33.671127 -117.873920 209 59ft 0kts
20-Sep-20 13:04 33.671126 -117.873921 209 59ft 0kts
20-Sep-20 13:05 33.671126 -117.873921 209 59ft 0kts
20-Sep-20 13:06 33.671125 -117.873922 209 59ft 0kts
20-Sep-20 13:06 33.671124 -117.873922 209 59ft 0kts
20-Sep-20 13:07 33.671123 -117.873923 209 59ft 0kts
20-Sep-20 13:08 33.671122 -117.873923 209 59ft 0kts
20-Sep-20 13:10 33.670970 -117.873952 132 59ft 5kts
20-Sep-20 13:10 33.673369 -117.871809 27 59ft 19kts
20-Sep-20 13:11 33.677802 -117.869088 26 59ft 17kts
20-Sep-20 13:12 33.680965 -117.866876 98 59ft 5kts
20-Sep-20 13:13 33.680769 -117.866385 116 59ft 0kts
20-Sep-20 13:14 33.680768 -117.866383 116 59ft 0kts
20-Sep-20 13:15 33.680767 -117.866382 116 59ft 0kts
20-Sep-20 13:16 33.678761 -117.866922 207 59ft 51kts
20-Sep-20 13:17 33.656084 -117.882534 209 713ft 110kts
20-Sep-20 13:18 33.636825 -117.911551 246 1575ft 115kts
20-Sep-20 13:19 33.657714 -117.936675 344 2294ft 130kts
20-Sep-20 13:20 33.692708 -117.948760 342 3011ft 131kts
20-Sep-20 13:21 33.729242 -117.943311 26 3175ft 149kts
20-Sep-20 13:22 33.765811 -117.924756 24 3087ft 126kts
20-Sep-20 13:23 33.797236 -117.909179 24 3103ft 120kts
20-Sep-20 13:24 33.828724 -117.893930 24 3101ft 122kts
20-Sep-20 13:25 33.855579 -117.872521 70 3113ft 116kts
20-Sep-20 13:26 33.868060 -117.836050 71 3096ft 119kts
20-Sep-20 13:27 33.880636 -117.799044 70 3096ft 120kts
20-Sep-20 13:28 33.887549 -117.761050 126 3081ft 118kts
20-Sep-20 13:29 33.857823 -117.757133 187 3102ft 111kts
20-Sep-20 13:30 33.829201 -117.770614 206 3048ft 111kts
20-Sep-20 13:31 33.802650 -117.788041 207 2993ft 105kts
20-Sep-20 13:32 33.777743 -117.804999 205 2675ft 100kts
20-Sep-20 13:33 33.753428 -117.820556 203 2025ft 97kts
20-Sep-20 13:34 33.729155 -117.835498 202 1381ft 94kts
20-Sep-20 13:35 33.705287 -117.850211 208 787ft 90kts
20-Sep-20 13:36 33.686148 -117.862224 206 189ft 69kts
20-Sep-20 13:37 33.675867 -117.869626 293 59ft 4kts
20-Sep-20 13:38 33.675434 -117.872287 294 59ft 8kts
20-Sep-20 13:39 33.675555 -117.872352 35 59ft 0kts
20-Sep-20 13:40 33.675555 -117.872351 34 59ft 0kts
20-Sep-20 13:41 33.675556 -117.872350 34 59ft 0kts
20-Sep-20 13:42 33.675558 -117.872349 34 59ft 0kts
20-Sep-20 13:43 33.675559 -117.872349 34 59ft 0kts
20-Sep-20 13:44 33.675559 -117.872348 34 59ft 0kts
20-Sep-20 13:45 33.675559 -117.872348 34 59ft 0kts
20-Sep-20 13:46 33.675559 -117.872348 34 59ft 0kts

Navigation Log

Ident Type
Flight plan parsing failed, navigation log unavailable